Time;durP1;ratioP1;P1;durP2;ratioP2;P2;SDS_P1;SDS_P2;PMS_P1;PMS_P2;Temp;Humidity;BMP_temperature;BMP_pressure;BME280_temperature;BME280_humidity;BME280_pressure;Samples;Min_cycle;Max_cycle;Signal;HPM_P1;HPM_P2
2023/08/19 01:06:38;;;;;;;8.00;6.80;;;;;;;22.18;100.00;100167.05;101396;1296;601503;-62
2023/08/19 01:09:31;;;;;;;9.30;6.70;;;;;;;22.44;100.00;100164.71;103626;1266;62383;-62
2023/08/19 01:12:04;;;;;;;9.50;6.50;;;;;;;22.45;100.00;100162.99;103520;1267;59697;-62
2023/08/19 01:14:58;;;;;;;10.90;6.60;;;;;;;22.44;100.00;100159.48;103704;1269;72060;-62
2023/08/19 01:17:28;;;;;;;7.60;6.80;;;;;;;22.42;100.00;100161.09;103645;1288;69142;-62
2023/08/19 01:19:57;;;;;;;9.70;6.70;;;;;;;22.39;100.00;100160.77;103231;1272;326436;-62
2023/08/19 01:22:34;;;;;;;7.50;6.70;;;;;;;22.42;100.00;100162.91;104024;1276;61665;-62
2023/08/19 01:25:05;;;;;;;;;;;;;;;22.39;100.00;100157.98;103755;1264;59791;-61
2023/08/19 01:27:32;;;;;;;7.30;6.30;;;;;;;22.35;100.00;100160.05;103874;1263;71929;-63
2023/08/19 01:30:01;;;;;;;7.60;6.80;;;;;;;22.29;100.00;100158.04;104207;1260;68567;-62
2023/08/19 05:38:45;;;;;;;8.00;7.20;;;;;;;25.53;100.00;100180.04;101143;1295;600851;-63
2023/08/19 05:41:13;;;;;;;8.60;7.80;;;;;;;25.57;100.00;100179.23;103748;1272;61405;-63
2023/08/19 05:43:42;;;;;;;10.00;8.40;;;;;;;25.66;100.00;100184.64;103575;1283;60776;-65
2023/08/19 05:46:10;;;;;;;9.00;8.20;;;;;;;25.77;100.00;100187.54;107442;1263;70714;-65
2023/08/19 05:48:37;;;;;;;9.10;8.40;;;;;;;25.87;100.00;100191.07;107381;1260;68776;-63
2023/08/19 05:51:05;;;;;;;9.50;8.10;;;;;;;25.94;100.00;100189.98;103789;1266;72925;-65
2023/08/19 05:53:33;;;;;;;8.30;7.70;;;;;;;26.02;100.00;100187.27;104254;1262;236449;-65
2023/08/19 05:56:01;;;;;;;;;;;;;;;26.07;100.00;100184.59;104301;1262;59559;-65
2023/08/19 05:58:29;;;;;;;10.00;8.50;;;;;;;26.15;100.00;100184.50;104396;1258;74422;-66
2023/08/19 06:01:00;;;;;;;8.10;7.40;;;;;;;26.24;100.00;100185.39;104069;1263;69777;-65
2023/08/19 06:03:28;;;;;;;9.00;8.00;;;;;;;26.34;100.00;100186.70;105404;1259;72612;-65
2023/08/19 06:05:55;;;;;;;;;;;;;;;26.45;100.00;100185.89;104107;1257;61421;-64
2023/08/19 06:08:23;;;;;;;14.00;8.30;;;;;;;26.50;100.00;100186.23;103959;1260;60636;-67
2023/08/19 06:11:02;;;;;;;8.10;7.30;;;;;;;26.53;100.00;100187.55;104061;1275;72802;-67
2023/08/19 06:13:30;;;;;;;8.80;7.70;;;;;;;26.63;100.00;100187.14;104004;1263;69605;-64
2023/08/19 06:15:58;;;;;;;8.90;8.00;;;;;;;26.73;100.00;100188.52;103968;1280;73263;-66
2023/08/19 06:18:26;;;;;;;;;;;;;;;26.81;100.00;100187.64;104089;1264;60722;-67
2023/08/19 06:20:55;;;;;;;11.80;7.60;;;;;;;26.89;100.00;100187.50;103985;1259;59857;-68
2023/08/19 06:23:23;;;;;;;8.20;7.30;;;;;;;26.97;100.00;100186.88;104124;1262;72932;-65
2023/08/19 06:25:51;;;;;;;;;;;;;;;27.06;100.00;100181.41;104076;1257;69195;-67
2023/08/19 06:28:19;;;;;;;10.00;7.10;;;;;;;27.13;100.00;100184.80;104010;1263;72497;-66
2023/08/19 06:30:47;;;;;;;10.90;7.50;;;;;;;27.20;100.00;100184.25;104195;1257;62402;-65
2023/08/19 06:33:15;;;;;;;9.50;8.00;;;;;;;27.31;100.00;100182.45;107564;1257;60048;-69
2023/08/19 06:35:48;;;;;;;17.90;8.70;;;;;;;27.41;100.00;100183.95;107614;1257;72961;-68
2023/08/19 06:38:15;;;;;;;12.20;7.70;;;;;;;27.50;100.00;100185.64;107429;1258;68133;-68
2023/08/19 06:40:48;;;;;;;;;;;;;;;27.62;100.00;100185.69;103976;1266;71436;-67
2023/08/19 06:43:16;;;;;;;19.30;8.80;;;;;;;27.71;100.00;100189.17;104058;1259;62416;-66
2023/08/19 06:45:44;;;;;;;15.20;7.30;;;;;;;27.79;100.00;100193.65;104046;1257;60497;-66
2023/08/19 06:48:12;;;;;;;;;;;;;;;27.87;100.00;100198.91;106307;1257;73482;-66
2023/08/19 06:50:40;;;;;;;8.80;6.50;;;;;;;27.96;100.00;100199.54;104463;1260;69607;-69
2023/08/19 06:53:10;;;;;;;9.30;7.00;;;;;;;28.06;100.00;100202.12;104082;1281;72553;-68
2023/08/19 06:55:39;;;;;;;13.30;7.80;;;;;;;28.16;100.00;100205.29;104359;1262;61439;-66
2023/08/19 06:58:10;;;;;;;10.30;7.60;;;;;;;28.25;100.00;100208.52;103876;1264;59762;-66
2023/08/19 07:00:38;;;;;;;8.70;7.30;;;;;;;28.37;100.00;100211.75;103887;1263;72045;-67
2023/08/19 07:03:05;;;;;;;;;;;;;;;28.46;100.00;100209.81;104221;1262;69697;-67
2023/08/19 07:05:33;;;;;;;10.40;6.80;;;;;;;28.55;100.00;100206.57;103999;1257;72936;-68
2023/08/19 07:08:02;;;;;;;7.10;6.50;;;;;;;28.62;100.00;100203.63;103903;1258;60671;-67
2023/08/19 07:10:30;;;;;;;8.70;7.50;;;;;;;28.73;100.00;100205.98;104097;1258;59728;-68
2023/08/19 07:12:58;;;;;;;20.20;7.00;;;;;;;28.84;100.00;100207.30;104000;1263;73830;-67
2023/08/19 07:15:27;;;;;;;13.90;7.70;;;;;;;28.96;100.00;100205.20;104117;1260;68062;-67
2023/08/19 07:17:55;;;;;;;10.30;6.70;;;;;;;29.08;100.00;100206.29;104241;1257;71586;-68
2023/08/19 07:20:23;;;;;;;9.80;7.40;;;;;;;29.15;100.00;100209.08;104081;1263;61800;-68
2023/08/19 07:22:52;;;;;;;10.70;7.50;;;;;;;29.22;100.00;100207.75;104092;1264;59713;-69
2023/08/19 07:25:19;;;;;;;10.00;7.40;;;;;;;29.31;100.00;100205.39;104020;1280;72873;-70
2023/08/19 07:27:47;;;;;;;8.90;6.60;;;;;;;29.38;100.00;100205.13;103990;1263;68236;-68
2023/08/19 07:30:16;;;;;;;10.20;7.20;;;;;;;29.47;100.00;100204.34;104125;1263;72782;-70
2023/08/19 07:32:45;;;;;;;8.70;6.70;;;;;;;29.57;100.00;100201.12;103892;1257;61885;-68
2023/08/19 07:35:12;;;;;;;8.80;6.50;;;;;;;29.66;100.00;100198.27;104098;1262;60631;-68
2023/08/19 07:37:40;;;;;;;;;;;;;;;29.75;100.00;100196.87;104004;1273;72891;-68
2023/08/19 07:40:13;;;;;;;8.90;6.60;;;;;;;29.84;100.00;100192.91;104181;1274;69730;-69
2023/08/19 07:42:40;;;;;;;15.20;7.00;;;;;;;29.91;100.00;100190.69;103996;1280;73376;-68
2023/08/19 07:45:08;;;;;;;;;;;;;;;30.00;100.00;100189.45;104138;1263;61470;-68
2023/08/19 07:47:38;;;;;;;8.20;6.20;;;;;;;30.10;100.00;100191.21;104370;1262;60377;-68
2023/08/19 07:50:07;;;;;;;8.00;6.30;;;;;;;30.16;100.00;100191.98;104370;1263;72704;-68
2023/08/19 07:52:35;;;;;;;11.20;6.40;;;;;;;30.21;100.00;100191.05;104536;1262;69092;-67
2023/08/19 07:55:04;;;;;;;;;;;;;;;30.26;100.00;100188.73;104757;1262;72387;-68
2023/08/19 07:57:31;;;;;;;7.00;6.30;;;;;;;30.30;100.00;100187.94;107706;1260;62021;-67
2023/08/19 07:59:59;;;;;;;10.80;6.70;;;;;;;30.35;100.00;100189.81;107711;1257;58739;-67
2023/08/19 08:02:27;;;;;;;10.40;6.20;;;;;;;30.42;100.00;100188.04;107841;1257;72820;-68
2023/08/19 08:04:55;;;;;;;6.30;5.60;;;;;;;30.51;100.00;100182.25;107903;1257;68431;-68
2023/08/19 08:07:23;;;;;;;8.50;6.00;;;;;;;30.58;100.00;100182.85;107938;1257;71428;-70
2023/08/19 08:09:51;;;;;;;9.90;5.70;;;;;;;30.68;100.00;100185.17;107829;1257;62477;-69
2023/08/19 08:12:18;;;;;;;;;;;;;;;30.73;100.00;100180.17;108071;1257;60064;-68
2023/08/19 08:14:46;;;;;;;10.20;5.90;;;;;;;30.81;100.00;100179.58;107882;1257;73261;-65
2023/08/19 08:17:13;;;;;;;9.00;6.30;;;;;;;30.92;100.00;100183.60;107873;1257;69320;-66
2023/08/19 08:19:43;;;;;;;9.00;6.40;;;;;;;31.00;100.00;100182.36;107821;1257;72544;-66
2023/08/19 08:22:12;;;;;;;10.60;5.80;;;;;;;31.01;98.54;100179.24;107815;1259;59053;-65
2023/08/19 08:24:41;;;;;;;6.50;5.90;;;;;;;31.02;93.75;100175.42;107915;1257;60155;-66
2023/08/19 08:27:13;;;;;;;10.20;6.10;;;;;;;31.05;97.74;100173.70;107979;1260;73847;-67
2023/08/19 08:29:40;;;;;;;9.50;6.00;;;;;;;31.13;98.92;100173.38;107910;1257;69141;-66
2023/08/19 08:32:09;;;;;;;;;;;;;;;31.22;98.22;100168.12;107818;1257;72443;-68
2023/08/19 08:34:37;;;;;;;7.90;5.70;;;;;;;31.28;91.90;100162.88;107887;1260;59863;-68
2023/08/19 08:37:05;;;;;;;6.50;5.50;;;;;;;31.38;93.58;100160.67;107872;1256;59686;-67
2023/08/19 08:39:33;;;;;;;8.60;5.70;;;;;;;31.46;91.97;100160.33;107817;1257;75408;-66
2023/08/19 08:42:03;;;;;;;7.10;5.50;;;;;;;31.56;90.98;100158.79;107911;1257;69716;-67
2023/08/19 08:44:32;;;;;;;10.60;4.90;;;;;;;31.68;84.83;100157.85;107857;1258;72368;-68
2023/08/19 08:47:00;;;;;;;10.90;5.70;;;;;;;31.76;82.12;100156.23;107794;1257;60035;-67
2023/08/19 08:49:27;;;;;;;6.40;5.10;;;;;;;31.81;82.72;100144.42;107559;1257;58910;-67
2023/08/19 08:51:56;;;;;;;6.30;5.20;;;;;;;32.02;79.97;100154.02;107594;1260;72777;-67
2023/08/19 08:54:24;;;;;;;8.80;4.60;;;;;;;32.11;79.61;100146.65;107631;1258;69554;-70
2023/08/19 08:56:52;;;;;;;8.00;5.70;;;;;;;32.18;78.09;100154.11;107728;1257;72266;-67
2023/08/19 08:59:20;;;;;;;6.10;5.10;;;;;;;32.31;74.04;100155.83;107732;1257;60127;-67
2023/08/19 09:01:47;;;;;;;;;;;;;;;32.41;72.21;100155.95;107930;1257;59694;-68
2023/08/19 09:04:18;;;;;;;9.10;4.80;;;;;;;32.51;71.69;100154.70;107972;1257;72874;-66
2023/08/19 09:06:46;;;;;;;9.60;5.90;;;;;;;32.56;68.28;100153.45;107828;1257;70054;-65
2023/08/19 09:09:14;;;;;;;10.70;5.20;;;;;;;32.62;69.07;100154.91;107927;1257;72644;-66
2023/08/19 09:11:45;;;;;;;6.80;4.70;;;;;;;32.65;67.63;100153.29;107883;1257;60710;-68
2023/08/19 09:14:31;;;;;;;8.60;4.90;;;;;;;32.65;68.43;100150.52;107913;1257;59598;-64
2023/08/19 09:16:59;;;;;;;5.80;5.20;;;;;;;32.75;67.92;100150.14;107757;1256;72808;-63
2023/08/19 09:19:26;;;;;;;7.90;5.40;;;;;;;32.81;67.73;100146.38;107968;1257;69131;-65
2023/08/19 09:21:55;;;;;;;7.20;5.20;;;;;;;32.91;66.91;100146.06;107947;1257;72722;-72
2023/08/19 09:24:23;;;;;;;;;;;;;;;33.04;65.72;100146.52;107852;1257;60181;-66
2023/08/19 09:26:55;;;;;;;6.30;4.90;;;;;;;33.12;63.51;100145.89;107901;1257;59622;-66
2023/08/19 09:29:23;;;;;;;5.60;4.90;;;;;;;33.17;62.15;100146.19;107979;1257;72792;-67
2023/08/19 09:31:57;;;;;;;8.40;4.80;;;;;;;33.15;60.64;100144.67;108060;1257;69170;-67
2023/08/19 09:34:24;;;;;;;7.60;5.10;;;;;;;33.18;63.04;100143.61;107701;1257;72351;-67
2023/08/19 09:36:55;;;;;;;10.20;5.30;;;;;;;33.17;61.63;100145.08;107913;1257;59750;-66
2023/08/19 09:39:26;;;;;;;10.10;6.00;;;;;;;33.16;63.40;100140.83;107911;1256;60750;-66
2023/08/19 09:41:58;;;;;;;7.20;5.00;;;;;;;33.18;64.42;100140.69;108095;1256;72767;-68
2023/08/19 09:44:29;;;;;;;8.60;4.80;;;;;;;33.22;62.13;100136.35;107859;1261;69656;-65
2023/08/19 09:46:59;;;;;;;6.00;5.50;;;;;;;33.20;62.22;100137.34;107800;1257;72442;-66
2023/08/19 09:49:26;;;;;;;5.30;4.80;;;;;;;33.08;61.90;100131.59;107787;1257;59798;-67
2023/08/19 09:51:55;;;;;;;8.70;5.20;;;;;;;32.98;62.00;100131.23;107697;1257;60144;-65
2023/08/19 09:54:23;;;;;;;5.10;4.70;;;;;;;32.90;62.18;100126.83;107794;1257;74109;-65
2023/08/19 09:56:55;;;;;;;5.50;5.00;;;;;;;32.99;62.99;100133.25;107810;1257;69199;-65
2023/08/19 09:59:23;;;;;;;7.40;5.40;;;;;;;33.09;62.99;100127.11;107718;1256;73456;-65
2023/08/19 10:01:52;;;;;;;7.40;5.50;;;;;;;33.14;62.48;100123.02;107803;1258;60187;-64
2023/08/19 10:04:19;;;;;;;8.40;5.40;;;;;;;33.11;63.53;100122.81;107935;1261;59660;-66
2023/08/19 10:06:50;;;;;;;6.80;5.20;;;;;;;33.06;64.11;100124.54;107910;1257;74055;-65
2023/08/19 10:09:25;;;;;;;6.00;5.50;;;;;;;33.01;65.00;100124.84;107773;1257;70083;-66
2023/08/19 10:11:55;;;;;;;8.50;5.20;;;;;;;33.00;62.75;100120.92;107892;1257;72455;-65
2023/08/19 10:14:28;;;;;;;7.80;4.90;;;;;;;33.06;63.50;100117.45;107800;1258;58850;-65
2023/08/19 10:16:56;;;;;;;6.10;5.30;;;;;;;33.10;60.07;100118.20;107875;1257;60066;-65
2023/08/19 10:19:24;;;;;;;7.60;5.40;;;;;;;33.07;60.12;100115.02;107816;1257;74505;-65
2023/08/19 10:21:52;;;;;;;9.50;5.60;;;;;;;33.03;60.85;100115.13;107861;1257;69032;-64
2023/08/19 10:24:19;;;;;;;;;;;;;;;33.02;63.66;100114.53;107752;1263;72343;-65
2023/08/19 10:26:48;;;;;;;6.90;5.70;;;;;;;32.95;64.39;100117.64;107940;1259;59935;-66
2023/08/19 10:29:16;;;;;;;10.60;7.50;;;;;;;32.89;62.12;100113.84;107757;1257;60436;-66
2023/08/19 10:31:43;;;;;;;8.40;6.00;;;;;;;32.84;63.70;100109.53;107816;1262;74032;-65
2023/08/19 10:34:32;;;;;;;8.70;5.60;;;;;;;32.87;61.65;100110.73;107900;1257;69402;-65
2023/08/19 10:37:09;;;;;;;10.00;4.80;;;;;;;32.99;62.02;100105.56;107794;1257;72757;-66
2023/08/19 10:39:37;;;;;;;5.40;4.80;;;;;;;33.11;60.93;100105.52;107814;1257;59785;-66
2023/08/19 10:42:05;;;;;;;6.10;5.50;;;;;;;33.26;60.22;100106.90;107940;1257;60067;-65
2023/08/19 10:44:33;;;;;;;6.40;4.80;;;;;;;33.38;60.31;100104.42;107875;1257;74057;-67
2023/08/19 10:47:08;;;;;;;8.20;5.10;;;;;;;33.48;59.72;100105.09;107823;1258;69203;-65
2023/08/19 10:49:36;;;;;;;6.70;5.30;;;;;;;33.51;57.24;100095.80;107696;1257;72474;-66
2023/08/19 10:52:05;;;;;;;6.30;4.70;;;;;;;33.48;58.85;100094.19;107676;1257;59783;-65
2023/08/19 10:54:43;;;;;;;5.50;4.80;;;;;;;33.51;57.90;100091.43;107685;1261;58857;-64
2023/08/19 10:57:11;;;;;;;;;;;;;;;33.57;58.84;100092.83;108344;1252;73592;-66
2023/08/19 10:59:40;;;;;;;7.10;4.10;;;;;;;33.59;57.44;100090.91;108232;1253;70137;-64
2023/08/19 11:02:08;;;;;;;5.60;3.90;;;;;;;33.57;54.87;100091.53;108263;1254;72382;-64
2023/08/19 11:04:41;;;;;;;7.40;4.10;;;;;;;33.52;55.11;100087.45;108375;1254;59897;-64
2023/08/19 11:07:10;;;;;;;4.70;4.30;;;;;;;33.48;54.37;100088.44;108345;1254;59021;-64
2023/08/19 11:09:43;;;;;;;4.60;4.20;;;;;;;33.49;54.87;100087.73;108415;1253;72808;-65
2023/08/19 11:12:11;;;;;;;5.10;4.50;;;;;;;33.53;54.67;100087.20;108260;1254;69200;-67
2023/08/19 11:14:39;;;;;;;5.80;4.30;;;;;;;33.64;53.55;100083.39;108007;1254;72972;-64
2023/08/19 11:17:06;;;;;;;5.20;3.90;;;;;;;33.77;51.49;100078.98;108245;1252;60178;-64
2023/08/19 11:19:34;;;;;;;5.40;3.60;;;;;;;33.89;49.64;100072.17;108424;1253;59846;-64
2023/08/19 11:22:01;;;;;;;6.60;3.90;;;;;;;33.97;49.08;100077.95;108269;1254;74040;-64
2023/08/19 11:24:30;;;;;;;4.60;4.20;;;;;;;34.04;50.31;100071.93;108382;1254;69104;-67
2023/08/19 11:26:58;;;;;;;7.90;4.20;;;;;;;34.13;48.13;100065.46;108410;1254;72894;-63
2023/08/19 11:29:28;;;;;;;5.50;4.40;;;;;;;34.20;48.44;100064.98;108323;1254;60820;-64
2023/08/19 11:31:57;;;;;;;5.50;4.00;;;;;;;34.32;49.14;100059.83;108407;1254;59238;-65
2023/08/19 11:34:29;;;;;;;5.30;4.30;;;;;;;34.40;48.55;100060.20;108226;1254;74087;-65
2023/08/19 11:36:56;;;;;;;5.80;3.80;;;;;;;34.51;49.22;100052.42;108372;1254;68995;-63
2023/08/19 11:39:30;;;;;;;4.20;3.70;;;;;;;34.61;48.70;100053.65;108335;1254;72354;-65
2023/08/19 11:41:59;;;;;;;6.90;4.10;;;;;;;34.69;50.30;100054.33;108522;1254;60254;-66
2023/08/19 11:44:29;;;;;;;7.00;4.00;;;;;;;34.73;48.04;100052.36;108177;1254;59465;-65
2023/08/19 11:46:57;;;;;;;5.20;4.30;;;;;;;34.72;47.81;100054.48;108410;1253;73718;-67
2023/08/19 11:49:28;;;;;;;8.80;4.00;;;;;;;34.78;47.52;100053.19;108244;1252;69612;-65
2023/08/19 11:51:59;;;;;;;4.30;3.90;;;;;;;34.82;47.18;100046.11;108275;1254;72518;-65
2023/08/19 11:54:26;;;;;;;10.70;4.10;;;;;;;34.85;47.85;100045.13;108225;1253;59807;-65
2023/08/19 11:56:55;;;;;;;8.10;3.80;;;;;;;34.86;46.47;100044.70;108269;1253;59774;-64
2023/08/19 11:59:32;;;;;;;5.00;3.70;;;;;;;34.76;47.15;100041.34;108280;1253;73599;-65
2023/08/19 12:02:05;;;;;;;4.50;4.00;;;;;;;34.67;49.47;100044.75;108271;1253;69426;-65
2023/08/19 12:04:36;;;;;;;7.50;3.60;;;;;;;34.59;48.55;100041.56;108422;1254;71331;-67
2023/08/19 12:07:05;;;;;;;7.40;3.70;;;;;;;34.56;47.17;100037.79;108420;1254;60716;-65
2023/08/19 12:09:35;;;;;;;5.10;3.90;;;;;;;34.60;46.97;100032.45;108469;1253;59796;-63
2023/08/19 12:12:10;;;;;;;3.60;3.30;;;;;;;34.73;46.97;100033.58;108430;1253;73962;-67
2023/08/19 12:14:38;;;;;;;7.20;4.00;;;;;;;34.88;46.39;100030.59;108406;1252;69195;-64
2023/08/19 12:17:09;;;;;;;5.50;3.80;;;;;;;35.04;46.12;100028.50;108535;1253;72472;-65
2023/08/19 12:19:37;;;;;;;8.00;4.00;;;;;;;35.14;44.48;100028.39;108391;1254;59784;-65
2023/08/19 12:22:05;;;;;;;5.50;3.40;;;;;;;35.17;44.13;100030.02;108484;1253;60716;-64
2023/08/19 12:24:32;;;;;;;5.50;3.80;;;;;;;35.30;43.59;100027.33;108501;1254;73631;-65
2023/08/19 12:27:00;;;;;;;5.00;3.60;;;;;;;35.43;43.22;100029.06;108416;1254;69423;-67
2023/08/19 12:29:27;;;;;;;5.30;4.10;;;;;;;35.51;42.98;100027.70;108368;1254;72425;-65
2023/08/19 12:31:55;;;;;;;7.40;3.70;;;;;;;35.48;43.89;100032.52;108424;1254;59263;-64
2023/08/19 12:34:23;;;;;;;5.20;3.90;;;;;;;35.42;43.50;100028.60;108417;1253;61155;-65
2023/08/19 12:36:51;;;;;;;4.70;3.60;;;;;;;35.41;43.48;100027.55;108439;1254;73446;-65
2023/08/19 12:39:22;;;;;;;5.70;3.90;;;;;;;35.46;43.09;100022.80;108406;1254;69080;-66
2023/08/19 12:41:50;;;;;;;4.00;3.50;;;;;;;35.55;42.83;100022.96;108303;1254;73329;-66
2023/08/19 12:44:18;;;;;;;8.50;4.00;;;;;;;35.67;42.57;100025.67;108251;1257;59063;-68
2023/08/19 12:46:45;;;;;;;5.40;3.80;;;;;;;35.80;42.30;100023.27;108395;1253;59647;-63
2023/08/19 12:49:13;;;;;;;3.60;3.30;;;;;;;35.86;42.35;100026.17;108282;1253;72740;-65
2023/08/19 12:51:41;;;;;;;4.00;3.60;;;;;;;36.01;42.08;100028.38;108300;1254;69177;-64
2023/08/19 12:54:09;;;;;;;3.80;3.50;;;;;;;36.10;39.95;100027.08;108214;1254;72312;-65
2023/08/19 12:56:36;;;;;;;7.20;3.70;;;;;;;36.13;40.26;100018.63;108231;1253;60199;-63
2023/08/19 12:59:04;;;;;;;4.70;3.30;;;;;;;36.10;40.18;100018.86;108258;1254;59675;-62
2023/08/19 13:01:32;;;;;;;8.30;3.30;;;;;;;35.93;39.94;100020.23;108253;1254;73674;-63
2023/08/19 13:04:00;;;;;;;4.20;3.60;;;;;;;35.71;40.51;100019.60;108297;1253;68590;-63
2023/08/19 13:06:27;;;;;;;4.00;3.70;;;;;;;35.49;40.53;100016.02;108392;1254;72349;-63
2023/08/19 13:08:55;;;;;;;6.70;3.70;;;;;;;35.32;42.14;100012.59;108387;1254;59796;-65
2023/08/19 13:11:23;;;;;;;5.30;3.70;;;;;;;35.26;42.89;100009.17;108170;1253;59662;-66
2023/08/19 13:13:51;;;;;;;3.60;3.30;;;;;;;35.34;43.03;100006.83;108381;1254;73715;-65
2023/08/19 13:16:18;;;;;;;4.70;3.60;;;;;;;35.48;42.36;100003.58;108244;1254;69740;-65
2023/08/19 13:18:46;;;;;;;5.60;3.80;;;;;;;35.67;42.05;100003.29;108262;1254;72558;-64
2023/08/19 13:23:22;;;;;;;8.30;4.00;;;;;;;35.59;43.16;100004.59;101121;1294;601725;-65
2023/08/19 13:25:50;;;;;;;6.70;4.00;;;;;;;35.97;42.11;100004.80;103500;1269;59831;-65
2023/08/19 13:28:17;;;;;;;9.10;3.60;;;;;;;36.11;41.53;100003.46;103451;1283;59725;-64
2023/08/19 13:30:45;;;;;;;3.60;3.30;;;;;;;36.20;40.45;100004.82;103468;1266;72191;-64
2023/08/19 13:33:13;;;;;;;6.70;3.60;;;;;;;36.27;39.69;100005.52;103470;1271;69071;-64
2023/08/19 13:35:41;;;;;;;6.50;3.60;;;;;;;36.28;39.94;100008.30;103493;1288;72935;-64
2023/08/19 13:38:11;;;;;;;7.10;3.60;;;;;;;36.28;39.55;100007.52;103053;1264;1107161;-64
2023/08/19 13:40:39;;;;;;;4.80;3.60;;;;;;;36.33;39.18;100007.39;103936;1263;59665;-64
2023/08/19 13:43:07;;;;;;;5.10;3.60;;;;;;;36.44;39.04;100007.23;103929;1263;72445;-65
2023/08/19 13:45:34;;;;;;;6.40;4.00;;;;;;;36.54;38.94;100002.04;104032;1263;70003;-63
2023/08/19 13:48:02;;;;;;;4.50;3.10;;;;;;;36.39;38.88;99997.48;103978;1263;71746;-61
2023/08/19 13:50:43;;;;;;;8.80;3.70;;;;;;;36.44;39.55;100002.05;105792;1263;59690;-64
2023/08/19 13:53:10;;;;;;;5.40;3.50;;;;;;;36.57;39.55;100002.73;104111;1266;59823;-65
2023/08/19 13:55:39;;;;;;;8.20;3.70;;;;;;;36.66;37.48;100001.75;103998;1281;73327;-66
2023/08/19 13:58:07;;;;;;;8.30;3.40;;;;;;;36.72;36.91;99999.84;104002;1265;70062;-66
2023/08/19 14:00:35;;;;;;;6.20;3.30;;;;;;;36.77;36.62;100001.25;103856;1269;72209;-63
2023/08/19 14:03:03;;;;;;;4.70;3.40;;;;;;;36.88;36.84;99997.73;103867;1282;59841;-65
2023/08/19 14:05:31;;;;;;;3.60;3.30;;;;;;;36.99;37.57;100003.30;104178;1263;60078;-63
2023/08/19 14:08:00;;;;;;;7.00;3.40;;;;;;;37.10;37.18;99998.48;104079;1266;72901;-61
2023/08/19 14:10:28;;;;;;;3.50;3.20;;;;;;;37.20;36.30;99991.69;103851;1286;69604;-63
2023/08/19 14:12:55;;;;;;;4.50;3.40;;;;;;;37.28;36.18;99994.92;103895;1264;72599;-60
2023/08/19 14:15:24;;;;;;;4.70;3.30;;;;;;;37.32;36.66;99995.38;104201;1265;60277;-61
2023/08/19 14:17:53;;;;;;;4.10;3.00;;;;;;;37.35;36.83;99990.05;105263;1266;59982;-62
2023/08/19 14:20:22;;;;;;;7.10;3.90;;;;;;;37.37;37.00;99989.85;103901;1263;71852;-62
2023/08/19 14:22:50;;;;;;;6.10;3.70;;;;;;;37.33;36.52;99986.11;104022;1263;68625;-66
2023/08/19 14:25:18;;;;;;;6.70;3.60;;;;;;;37.24;36.39;99981.98;103950;1266;73341;-64
2023/08/19 14:27:45;;;;;;;4.70;4.00;;;;;;;37.13;36.28;99978.92;103948;1268;59866;-65
2023/08/19 14:30:13;;;;;;;4.40;3.70;;;;;;;37.02;36.29;99982.63;104135;1264;59843;-64
2023/08/19 14:32:41;;;;;;;3.80;3.50;;;;;;;36.96;36.62;99981.23;103962;1267;73685;-64
2023/08/19 14:35:09;;;;;;;6.10;3.60;;;;;;;36.89;37.52;99979.77;103965;1265;68292;-64
2023/08/19 14:37:37;;;;;;;5.10;3.70;;;;;;;36.81;37.10;99977.38;104032;1262;72484;-65
2023/08/19 14:40:08;;;;;;;6.10;3.20;;;;;;;36.76;37.66;99978.10;103840;1267;59778;-64
2023/08/19 14:42:35;;;;;;;3.60;3.20;;;;;;;36.71;37.18;99972.80;103973;1263;60108;-64
2023/08/19 14:45:04;;;;;;;3.50;3.10;;;;;;;36.68;37.70;99971.08;104008;1268;74895;-65
2023/08/19 14:47:32;;;;;;;4.20;3.50;;;;;;;36.64;37.86;99968.27;104000;1281;69459;-65
2023/08/19 14:50:00;;;;;;;8.20;3.50;;;;;;;36.56;37.66;99967.69;104482;1263;71897;-63
2023/08/19 14:52:27;;;;;;;6.60;3.50;;;;;;;36.47;37.59;99965.21;107204;1262;59756;-63
2023/08/19 14:54:55;;;;;;;6.40;3.50;;;;;;;36.38;37.32;99962.95;105102;1266;60627;-63
2023/08/19 14:57:23;;;;;;;5.90;3.50;;;;;;;36.28;37.42;99958.04;104029;1268;73493;-61
2023/08/19 14:59:50;;;;;;;4.90;3.40;;;;;;;36.25;38.66;99959.30;103826;1280;69219;-62
2023/08/19 15:02:21;;;;;;;5.20;3.60;;;;;;;36.23;38.08;99955.58;103870;1268;72903;-64
2023/08/19 15:04:48;;;;;;;6.20;3.40;;;;;;;36.15;37.51;99954.66;103928;1267;60860;-62
2023/08/19 15:07:16;;;;;;;8.90;3.80;;;;;;;36.10;37.46;99952.95;103825;1267;60730;-62
2023/08/19 15:09:44;;;;;;;4.00;3.20;;;;;;;36.03;38.07;99952.41;103900;1268;73253;-62
2023/08/19 15:12:13;;;;;;;3.70;3.20;;;;;;;35.99;37.96;99952.09;103919;1266;69245;-62
2023/08/19 15:14:41;;;;;;;8.10;3.50;;;;;;;35.97;37.95;99953.83;106266;1265;72169;-63
2023/08/19 15:17:09;;;;;;;3.80;3.50;;;;;;;35.96;37.48;99952.58;104115;1263;59947;-63
2023/08/19 15:19:36;;;;;;;7.40;3.60;;;;;;;35.96;37.86;99950.14;103847;1265;60288;-62
2023/08/19 15:22:04;;;;;;;12.20;3.60;;;;;;;35.99;38.93;99951.07;104295;1265;72883;-62
2023/08/19 15:24:32;;;;;;;4.80;3.30;;;;;;;36.02;37.99;99949.53;103822;1287;70312;-62
2023/08/19 15:26:59;;;;;;;6.80;3.80;;;;;;;36.05;37.99;99949.38;104250;1263;72477;-62
2023/08/19 15:29:27;;;;;;;4.60;3.90;;;;;;;36.10;39.03;99946.21;104104;1263;59984;-61
2023/08/19 15:31:55;;;;;;;9.00;4.30;;;;;;;36.16;40.68;99941.81;104128;1263;59835;-63
2023/08/19 15:34:27;;;;;;;7.10;3.60;;;;;;;36.10;41.44;99943.81;104034;1265;72926;-62
2023/08/19 15:36:54;;;;;;;9.80;4.30;;;;;;;36.05;42.21;99949.08;103987;1265;69957;-62
2023/08/19 15:39:22;;;;;;;7.10;3.60;;;;;;;35.96;39.83;99945.00;103893;1263;72455;-62
2023/08/19 15:41:50;;;;;;;14.70;3.50;;;;;;;35.94;40.35;99948.52;104002;1269;60805;-62
2023/08/19 15:44:17;;;;;;;9.30;4.20;;;;;;;35.87;43.35;99950.21;103914;1279;60267;-62
2023/08/19 15:46:45;;;;;;;6.20;3.70;;;;;;;35.73;44.85;99951.51;103921;1263;72793;-62
2023/08/19 15:49:13;;;;;;;11.40;3.70;;;;;;;35.60;44.38;99948.39;103877;1283;69222;-62
2023/08/19 15:51:41;;;;;;;4.10;3.30;;;;;;;35.51;44.39;99947.48;103941;1274;73312;-63
2023/08/19 15:54:11;;;;;;;7.90;3.90;;;;;;;35.44;43.80;99948.98;106917;1260;60713;-62
2023/08/19 15:56:38;;;;;;;7.50;3.80;;;;;;;35.35;45.87;99952.19;104215;1265;59874;-62
2023/08/19 15:59:06;;;;;;;6.10;3.60;;;;;;;35.23;44.96;99955.50;103859;1265;71653;-62
2023/08/19 16:01:35;;;;;;;4.00;3.60;;;;;;;35.09;46.25;99954.00;103824;1265;70735;-62
2023/08/19 16:04:04;;;;;;;6.10;3.90;;;;;;;34.90;46.49;99951.41;103804;1265;73096;-62
2023/08/19 16:06:31;;;;;;;6.60;3.70;;;;;;;34.73;47.05;99948.80;105031;1262;59873;-62
2023/08/19 16:08:59;;;;;;;8.70;3.70;;;;;;;34.54;48.73;99949.05;103774;1261;60042;-62
2023/08/19 16:11:27;;;;;;;4.50;3.60;;;;;;;34.31;49.60;99948.75;103764;1267;72786;-62
2023/08/19 16:13:54;;;;;;;5.20;3.90;;;;;;;34.07;51.29;99952.45;103755;1265;69116;-62
2023/08/19 16:16:22;;;;;;;9.10;4.00;;;;;;;33.80;53.43;99954.66;103849;1265;72476;-61
2023/08/19 16:18:51;;;;;;;4.70;4.00;;;;;;;33.60;55.91;99959.33;103723;1261;59892;-61
2023/08/19 16:21:19;;;;;;;4.90;3.90;;;;;;;33.42;57.32;99959.46;103802;1259;59833;-61
2023/08/19 16:23:47;;;;;;;8.00;4.20;;;;;;;33.22;58.22;99961.95;103695;1264;72766;-61
2023/08/19 16:26:15;;;;;;;8.90;4.30;;;;;;;33.03;60.56;99966.06;103773;1265;69688;-60
2023/08/19 16:28:43;;;;;;;5.70;4.60;;;;;;;32.84;62.88;99964.73;103749;1283;73012;-62
2023/08/19 16:31:11;;;;;;;8.50;4.50;;;;;;;32.65;63.44;99966.77;103955;1265;59847;-61
2023/08/19 16:33:38;;;;;;;6.90;4.60;;;;;;;32.46;68.77;99965.35;104030;1265;59869;-61
2023/08/19 16:36:06;;;;;;;6.50;4.50;;;;;;;32.31;71.94;99965.13;103963;1266;73720;-62
2023/08/19 16:38:34;;;;;;;6.70;4.20;;;;;;;32.13;73.82;99967.48;103958;1265;69417;-61
2023/08/19 16:41:05;;;;;;;4.30;3.90;;;;;;;31.96;78.35;99968.80;103888;1283;71670;-61